lundi 31 mars 2014

CITYJET - 28/03/14 : Vente confirmée


Vendredi 28 mars 2014, le groupe Air France-KLM a confirmé accepter l'offre de rachat de sa compagnie CityJet par le groupe allemand Intro Aviation GmbH qu'il avait émise en décembre 2013.

La cession des titres doit intervenir à la fin du mois d'avril.

Air France et Cityjet continueront une coopération commerciale avec un projet qui prévoit le développement de vols sous la marque CityJet au départ de Londres City vers des destinations européennes, et le maintien par CityJet de vols opérés pour le compte d'Air France au départ de Paris-CDG.

Au départ d'Orly, Cityjet opèrent des vols sur londres City et Cardiff pour son propre compte (numéro de vol WX) depuis le 30 mars 2014. Auparavant, elle utilisait des numéros de vols commerciaux Air France sur Nantes, Londres-City et Cardiff.

Cityjet: La compagnie irlandaise compte une flotte de 38 appareils (des Avro AR8 et des Fokker 50 provenant de sa filiale VLM) et propose plus de 480 vols hebdomadaires à travers l'Europe. Elle avait achetée par Air France en 2000 et avait à son tour acheté sa filiale belge VLM en 2008.

Intro Aviation GmbH: Hans Rudolf Wöhrl, président de la compagnie aérienne Intersky (détenu à 75% par Intro Aviation), envisage de la fusionner avec Cityjet pour former une nouvelle compagnie régionale européenne suffisamment forte pour ne pas être évincée par les gros transporteurs comme Lufthansa. La compagnie autrichienne Intersky a été créé en novembre 2001 (codes 3L/ISK). Elle possède une flotte de 2 ATR.72 et 3 Dash.8.

* * * * * * * *
Tout sur l'aéroport d'Orly : (c) Airkalo.com

dimanche 30 mars 2014

ALERTE SPOTTING 30/03/14

 ** passage à TU+2 / Début saison aéronautique été **

320 F-GHQE Air Corsica (blanc avec titre)
   XK4501/XK4500  07h35/ 08h30

744 EC-KQC Pullmantur Air
   PLM6121/PLM710P    09h50/11h20

73H CN-RGN RAM (sticker 50th 737)
   AT760/AT761   12h15/13h30
  AT750/AT751  20h15/21h30

73H TC-AVP Pegasus (sticker Asia)
   PC401/PC420  14h15/15h05

IL9 Cubana  reporté à demain

77W F-GZNG Air France
   AF370Y/AF642   16h40/21h00

734 OM-GTA Go2sky
   KM476/KM477  19h45/20h30

332 F-GZCI Air France
   arv AF372Y 20h40


Manque les prévisions/immats UX / BE / certains IB / AZ / TP / BA / AH
*** Heures en Local Time **
Prévisions matinales soumises à modifications de dernières minute. Voir le log du mois pour la version 'définitive' de la journée: http://www.airkalo.com/ORLYAVIATION/Logdumois.html

le TAF de la journée:


METAR: LFPO 300230Z 00000KT CAVOK 09/02 Q1013 NOSIG=
TAF LONG: LFPO 292300Z 3000/3106 13007KT CAVOK

samedi 29 mars 2014

ALERTE SPOTTING 29/03/14

744 EC-KQC Pullmantur Air
   dpt PLM6021  12h25

320 EC-IZR Iberia (couleur Oneworld)
   IB3410/IB3411  19h30/20h20

Manque les prévisions/immats UX / DY / BE / certains IB / AZ / TP / BA / AH
*** Heures en Local Time **
Prévisions matinales soumises à modifications de dernières minute. Voir le log du mois pour la version 'définitive' de la journée: http://www.airkalo.com/ORLYAVIATION/Logdumois.html

le TAF de la journée:




METAR: LFPO 290400Z 04002KT CAVOK 07/02 Q1014 NOSIG=
TAF LONG: LFPO 282300Z 2900/3006 12005KT CAVOK

mercredi 26 mars 2014

CUBANA : Fin prévu du vol sur Santa Clara



La Cubana arrête sa ligne sur Santa Clara SNU pour la saison été. Le vol du vendredi CU440/CU441, effectué en Ilyushin 96, ira directement à La Havane.

Le dernier vol doit avoir lieu le 18 avril 2014.

* * * * * * * *
Tout sur l'aéroport d'Orly : (c) Airkalo.com

ALERTE SPOTTING 26/03/14

320 EC-JZQ Vueling (stickers Thanks)
   VY8010/VY8011  07h45/08h30

320 F-GHQE Air Corsica (blanc avec titre??)
   XK4501/XK4500  08h30/09h25
  XK4505/XK4504   19H55/21h00

Manque les prévisions/immats UX / DY / BE / certains IB / AZ / TP / BA / AH
*** Heures en Local Time **
Prévisions matinales soumises à modifications de dernières minute. Voir le log du mois pour la version 'définitive' de la journée: http://www.airkalo.com/ORLYAVIATION/Logdumois.html

le TAF de la journée:



METAR: LFPO 260400Z 36005KT CAVOK 02/M01 Q1011 NOSIG=
TAF LONG: LFPO 252300Z 2600/2706 36005KT CAVOK BECMG 2610/2612 SCT030 TEMPO
2611/2618 36010KT 7000 SHRA BKN025TCU PROB30 TEMPO 2615/2618
36010G20KT 4000 SHRA SCT030CB BECMG 2619/2621 CAVOK TEMPO 2703/2706
VRB03KT 0800 BCFG= 

mardi 25 mars 2014

ALERTE SPOTTING 25/03/14

RAS
Manque les prévisions/immats UX / DY / BE / certains IB / AZ / TP / BA / AH
*** Heures en Local Time **
Prévisions matinales soumises à modifications de dernières minute. Voir le log du mois pour la version 'définitive' de la journée: http://www.airkalo.com/ORLYAVIATION/Logdumois.html

le TAF de la journée:


METAR: LFPO 250400Z 24004KT 9999 -RA SCT033 BKN050 06/02 Q1009 NOSIG=
TAF LONG: LFPO 242300Z 2500/2606 14004KT CAVOK BECMG 2502/2504 BKN015
PROB40 TEMPO 2504/2513 4000 RA BKN008 BECMG 2518/2520 BKN030 BECMG
2522/2524 36005KT CAVOK= 

vendredi 21 mars 2014

EASYJET : Nouvelle commande de 135 Airbus A320


Carolyn McCall a officialisé cette nouvelle grosse commande le 19 mars 2014. Cette commande d'un montant estimé à 12 milliards d'euros, avait été annoncé au salon du Bourget en juin dernier. La signature a eu lieu au ministère des Transports à Paris, ce qui n'est pas du goût de la Fédération nationale de l'aviation marchande qui défend un pavillon français en régression.

35 appareils classiques seront livrés entre 2015 et 2017 et les 100 A320 Neo entre 2017 et 2022.

85 de ces appareils serviront à remplacer les plus anciens.

easyJet devient le plus gros acheteur d'Airbus A320 en Europe. Il faut noter que la compagnie est propriétaire de 70% de sa flotte, le reste étant de la location.

La compagnie est présente sur 18 aéroports et desserrent 182 lignes auxquelles il faudra ajouter 24 nouvelles lignes et 2 aéroports cet été. 

easyJet, c'est 217 avions, 60 millions de passagers en Europe dont 11 en voyage d'affaires.
EasyJet espère gagner de nouveaux clients Affaires grâce notamment à cette commande.
* * * * * * * *
Tout sur l'aéroport d'Orly : (c) Airkalo.com

mardi 18 mars 2014

ALERTE SPOTTING 18/03/14


**** Grève ATC ****

73H TC-AZP Pegasus (sticker Asia)
   PC401/PC402  13h20/14h10

32A EC-LVP Vueling.com (couleur Linking Europe)
   VY8836/VY8837   20h30/21h05

Manque les prévisions/immats UX / BE / certains IB / AZ / TP / BA / AH
*** Heures en Local Time **
Prévisions matinales soumises à modifications de dernières minute. Voir le log du mois pour la version 'définitive' de la journée: http://www.airkalo.com/ORLYAVIATION/Logdumois.html

le TAF de la journée:


METAR: LFPO 180400Z VRB02KT 4500 BR OVC010 07/06 Q1019 TEMPO 2500
BR OVC003=
TAF LONG: LFPO 172300Z 1800/1906 VRB03KT 6000 NSC BECMG 1800/1803 4000 BR
SCT012 BKN210 TEMPO 1803/1808 2500 BR BKN003 BECMG 1808/1810 7000
BKN012 BECMG 1810/1812 27007KT 9999 BKN018 TEMPO 1814/1821 27012KT
SCT025 BECMG 1821/1822 27006KT CAVOK TEMPO 1903/1906 1500 BR BKN003=